createdAt,value
2023-03-15T00:01:49.343Z,1.05
2023-03-15T00:04:16.146Z,1.25
2023-03-15T00:06:42.858Z,1.42
2023-03-15T00:09:10.085Z,1.35
2023-03-15T00:11:36.865Z,1.15
2023-03-15T00:14:03.817Z,1.20
2023-03-15T00:16:32.902Z,1.00
2023-03-15T00:19:00.173Z,1.10
2023-03-15T00:21:29.827Z,0.90
2023-03-15T00:23:56.939Z,1.00
2023-03-15T00:26:23.698Z,1.30
2023-03-15T00:28:50.508Z,1.20
2023-03-15T00:31:23.086Z,1.20
2023-03-15T00:33:53.725Z,1.10
2023-03-15T00:36:24.222Z,1.30
2023-03-15T00:38:53.385Z,1.25
2023-03-15T00:41:21.356Z,0.90
2023-03-15T00:43:48.446Z,1.35
2023-03-15T00:46:15.977Z,1.88
2023-03-15T00:48:43.052Z,1.58
2023-03-15T00:51:14.936Z,1.55
2023-03-15T00:53:43.712Z,1.70
2023-03-15T00:56:13.990Z,1.65
2023-03-15T00:58:41.343Z,1.50
2023-03-15T01:01:13.193Z,1.40
2023-03-15T01:03:40.880Z,1.30
2023-03-15T01:06:16.659Z,1.70
2023-03-15T01:08:44.389Z,1.63
2023-03-15T01:11:17.555Z,2.05
2023-03-15T01:13:44.745Z,2.00
2023-03-15T01:16:13.814Z,1.70
2023-03-15T01:18:41.473Z,1.63
2023-03-15T01:21:10.329Z,1.90
2023-03-15T01:23:37.222Z,1.73
2023-03-15T01:26:06.497Z,1.83
2023-03-15T01:28:33.554Z,1.50
2023-03-15T01:31:00.515Z,1.50
2023-03-15T01:33:27.824Z,1.70
2023-03-15T01:36:05.410Z,1.75
2023-03-15T01:38:33.001Z,2.08
2023-03-15T01:41:00.047Z,2.00
2023-03-15T01:43:28.685Z,2.88
2023-03-15T01:46:19.712Z,2.40
2023-03-15T01:48:49.307Z,2.28
2023-03-15T01:51:16.222Z,2.00
2023-03-15T01:53:46.811Z,1.83
2023-03-15T01:56:14.386Z,1.33
2023-03-15T01:58:44.424Z,2.00
2023-03-15T02:01:11.575Z,2.17
2023-03-15T02:03:47.183Z,2.25
2023-03-15T02:06:21.504Z,2.33
2023-03-15T02:08:59.428Z,1.30
2023-03-15T02:11:27.670Z,1.40
2023-03-15T02:13:56.440Z,1.20
2023-03-15T02:16:25.061Z,1.20
2023-03-15T02:18:51.937Z,1.65
2023-03-15T02:21:18.797Z,1.38
2023-03-15T02:23:50.158Z,1.05
2023-03-15T02:26:33.774Z,1.10
2023-03-15T02:29:01.307Z,1.85
2023-03-15T02:31:28.992Z,1.42
2023-03-15T02:33:55.820Z,1.70
2023-03-15T02:36:27.074Z,1.38
2023-03-15T02:38:55.245Z,2.20
2023-03-15T02:41:27.659Z,1.98
2023-03-15T02:43:58.959Z,1.52
2023-03-15T02:46:25.946Z,1.90
2023-03-15T02:48:54.477Z,1.65
2023-03-15T02:51:24.679Z,1.50
2023-03-15T02:53:51.467Z,1.15
2023-03-15T02:56:18.242Z,2.00
2023-03-15T02:58:45.808Z,1.70
2023-03-15T03:01:14.319Z,1.60
2023-03-15T03:03:42.204Z,1.35
2023-03-15T03:06:09.863Z,1.42
2023-03-15T03:08:37.366Z,1.77
2023-03-15T03:11:04.796Z,1.63
2023-03-15T03:13:31.527Z,1.30
2023-03-15T03:16:01.361Z,1.30
2023-03-15T03:18:29.274Z,1.20
2023-03-15T03:20:57.553Z,1.60
2023-03-15T03:23:27.331Z,1.63
2023-03-15T03:25:55.039Z,1.20
2023-03-15T03:28:24.169Z,1.60
2023-03-15T03:30:52.713Z,1.52
2023-03-15T03:33:21.224Z,1.77
2023-03-15T03:35:48.688Z,1.42
2023-03-15T03:38:15.992Z,1.75
2023-03-15T03:40:43.100Z,1.55
2023-03-15T03:43:10.015Z,1.08
2023-03-15T03:45:36.977Z,1.27
2023-03-15T03:48:03.923Z,1.38
2023-03-15T03:50:31.853Z,1.40
2023-03-15T03:52:58.678Z,1.13
2023-03-15T03:55:25.649Z,1.60
2023-03-15T03:57:53.169Z,2.65
2023-03-15T04:00:20.454Z,1.70
2023-03-15T04:02:47.582Z,1.52
2023-03-15T04:05:14.489Z,1.20
2023-03-15T04:07:41.582Z,1.70
2023-03-15T04:10:09.150Z,1.75
2023-03-15T04:12:35.998Z,2.50
2023-03-15T04:15:03.494Z,4.45
2023-03-15T04:17:30.478Z,2.70
2023-03-15T04:19:58.134Z,2.15
2023-03-15T04:22:24.985Z,2.08
2023-03-15T04:24:51.740Z,1.70
2023-03-15T04:27:18.572Z,2.03
2023-03-15T04:29:45.423Z,1.65
2023-03-15T04:32:12.295Z,2.03
2023-03-15T04:34:39.175Z,1.85
2023-03-15T04:37:06.776Z,1.83
2023-03-15T04:39:33.561Z,3.03
2023-03-15T04:42:00.382Z,2.60
2023-03-15T04:44:27.306Z,2.35
2023-03-15T04:46:55.260Z,2.10
2023-03-15T04:49:22.142Z,2.13
2023-03-15T04:51:48.914Z,2.47
2023-03-15T04:54:15.778Z,2.08
2023-03-15T04:56:42.533Z,2.38
2023-03-15T04:59:11.156Z,2.53
2023-03-15T05:01:37.965Z,2.17
2023-03-15T05:04:04.841Z,2.13
2023-03-15T05:06:31.587Z,2.47
2023-03-15T05:08:58.392Z,2.10
2023-03-15T05:11:25.276Z,2.22
2023-03-15T05:13:52.086Z,2.65
2023-03-15T05:16:18.975Z,2.20
2023-03-15T05:18:45.785Z,2.78
2023-03-15T05:21:13.396Z,1.83
2023-03-15T05:23:40.352Z,2.03
2023-03-15T05:26:07.157Z,2.65
2023-03-15T05:28:34.040Z,3.40
2023-03-15T05:31:02.574Z,6.60
2023-03-15T05:33:29.724Z,4.35
2023-03-15T05:35:56.660Z,3.60
2023-03-15T05:38:26.646Z,3.10
2023-03-15T05:40:54.627Z,3.60
2023-03-15T05:43:22.119Z,3.90
2023-03-15T05:45:48.972Z,3.65
2023-03-15T05:48:16.835Z,4.18
2023-03-15T05:50:43.660Z,3.92
2023-03-15T05:53:10.701Z,4.50
2023-03-15T05:55:37.579Z,5.22
2023-03-15T05:58:05.097Z,4.10
2023-03-15T06:00:32.367Z,5.07
2023-03-15T06:02:59.490Z,4.43
2023-03-15T06:05:27.044Z,5.00
2023-03-15T06:07:53.810Z,5.55
2023-03-15T06:10:20.548Z,4.75
2023-03-15T06:12:47.342Z,5.55
2023-03-15T06:15:14.099Z,4.72
2023-03-15T06:17:40.841Z,5.13
2023-03-15T06:20:07.963Z,5.35
2023-03-15T06:22:34.869Z,10.35
2023-03-15T06:25:03.495Z,8.63
2023-03-15T06:27:30.422Z,10.32
2023-03-15T06:29:57.551Z,6.75
2023-03-15T06:32:24.444Z,5.78
2023-03-15T06:34:51.916Z,5.03
2023-03-15T06:37:25.805Z,6.18
2023-03-15T06:40:01.251Z,6.38
2023-03-15T06:42:27.983Z,6.40
2023-03-15T06:44:54.737Z,6.95
2023-03-15T06:47:21.654Z,7.10
2023-03-15T06:49:50.441Z,6.38
2023-03-15T06:52:17.730Z,7.80
2023-03-15T06:54:44.633Z,6.15
2023-03-15T06:57:11.576Z,7.05
2023-03-15T06:59:38.362Z,7.55
2023-03-15T07:02:05.272Z,6.97
2023-03-15T07:04:32.053Z,6.55
2023-03-15T07:06:58.767Z,5.88
2023-03-15T07:09:25.585Z,7.13
2023-03-15T07:11:52.321Z,6.00
2023-03-15T07:14:19.069Z,6.25
2023-03-15T07:16:47.877Z,5.57
2023-03-15T07:19:14.626Z,7.55
2023-03-15T07:21:41.460Z,6.53
2023-03-15T07:24:08.332Z,7.18
2023-03-15T07:26:35.135Z,7.60
2023-03-15T07:29:01.889Z,6.00
2023-03-15T07:31:28.633Z,6.20
2023-03-15T07:33:55.352Z,7.85
2023-03-15T07:36:22.344Z,6.35
2023-03-15T07:38:49.136Z,5.45
2023-03-15T07:41:16.727Z,6.45
2023-03-15T07:43:43.846Z,5.13
2023-03-15T07:46:11.099Z,10.00
2023-03-15T07:48:37.956Z,5.50
2023-03-15T07:51:05.190Z,6.07
2023-03-15T07:53:32.062Z,4.68
2023-03-15T07:55:58.935Z,5.63
2023-03-15T07:58:25.722Z,4.80
2023-03-15T08:00:55.514Z,7.32
2023-03-15T08:03:24.164Z,6.57
2023-03-15T08:05:51.459Z,3.92
2023-03-15T08:08:18.245Z,4.63
2023-03-15T08:10:45.671Z,4.70
2023-03-15T08:13:13.432Z,4.30
2023-03-15T08:15:40.996Z,3.92
2023-03-15T08:18:07.736Z,3.42
2023-03-15T08:20:34.563Z,3.78
2023-03-15T08:23:01.814Z,3.70
2023-03-15T08:25:29.318Z,3.15
2023-03-15T08:27:56.017Z,4.03
2023-03-15T08:30:23.879Z,4.63
2023-03-15T08:32:52.630Z,3.10
2023-03-15T08:35:21.699Z,3.72
2023-03-15T08:37:48.765Z,4.37
2023-03-15T08:40:19.090Z,4.83
2023-03-15T08:42:45.984Z,7.03
2023-03-15T08:45:12.778Z,2.92
2023-03-15T08:47:39.625Z,3.30
2023-03-15T08:50:10.984Z,2.30
2023-03-15T08:52:38.290Z,3.00
2023-03-15T08:55:05.862Z,3.10
2023-03-15T08:57:35.375Z,2.30
2023-03-15T09:00:09.256Z,4.00
2023-03-15T09:02:37.313Z,2.60
2023-03-15T09:05:07.139Z,2.80
2023-03-15T09:07:34.402Z,2.07
2023-03-15T09:10:03.447Z,2.20
2023-03-15T09:12:31.615Z,2.37
2023-03-15T09:14:58.363Z,2.93
2023-03-15T09:17:25.131Z,2.67
2023-03-15T09:19:52.605Z,2.50
2023-03-15T09:22:34.746Z,2.10
2023-03-15T09:25:05.343Z,2.50
2023-03-15T09:27:32.481Z,2.70
2023-03-15T09:29:59.370Z,3.00
2023-03-15T09:32:26.330Z,3.77
2023-03-15T09:34:53.160Z,2.80
2023-03-15T09:37:21.890Z,2.67
2023-03-15T09:39:48.942Z,2.10
2023-03-15T09:43:03.504Z,1.63
2023-03-15T09:45:52.030Z,3.10
2023-03-15T09:48:24.682Z,4.63
2023-03-15T09:50:57.375Z,2.60
2023-03-15T09:53:41.546Z,1.60
2023-03-15T09:56:19.069Z,1.80
2023-03-15T09:58:47.239Z,2.13
2023-03-15T10:01:16.408Z,1.80
2023-03-15T10:03:49.058Z,2.03
2023-03-15T10:06:26.615Z,2.13
2023-03-15T10:09:01.900Z,1.60
2023-03-15T10:11:47.626Z,2.50
2023-03-15T10:14:33.933Z,1.73
2023-03-15T10:17:12.143Z,2.47
2023-03-15T10:19:54.886Z,1.50
2023-03-15T10:22:30.049Z,1.70
2023-03-15T10:25:05.127Z,2.23
2023-03-15T10:27:41.547Z,1.60
2023-03-15T10:30:23.588Z,2.17
2023-03-15T10:33:14.352Z,2.00
2023-03-15T10:35:43.101Z,2.00
2023-03-15T10:38:20.953Z,2.00
2023-03-15T10:40:52.014Z,1.70
2023-03-15T10:43:30.106Z,1.47
2023-03-15T10:46:06.215Z,1.50
2023-03-15T10:48:38.908Z,1.40
2023-03-15T10:51:25.578Z,1.50
2023-03-15T10:53:59.076Z,1.50
2023-03-15T10:56:28.906Z,1.30
2023-03-15T10:59:11.477Z,2.40
2023-03-15T11:01:38.957Z,1.60
2023-03-15T11:04:22.556Z,1.57
2023-03-15T11:06:59.134Z,1.50
2023-03-15T11:09:28.627Z,1.47
2023-03-15T11:12:00.946Z,1.30
2023-03-15T11:14:39.273Z,1.67
2023-03-15T11:17:09.121Z,1.43
2023-03-15T11:19:51.616Z,1.20
2023-03-15T11:22:18.355Z,1.00
2023-03-15T11:24:45.178Z,1.37
2023-03-15T11:27:15.042Z,1.80
2023-03-15T11:29:48.757Z,4.00
2023-03-15T11:32:21.445Z,2.17
2023-03-15T11:35:16.225Z,2.33
2023-03-15T11:37:51.150Z,1.20
2023-03-15T11:40:30.067Z,2.13
2023-03-15T11:43:02.918Z,2.80
2023-03-15T11:45:40.562Z,2.10
2023-03-15T11:48:51.208Z,1.83
2023-03-15T11:51:18.087Z,1.40
2023-03-15T11:54:11.172Z,1.30
2023-03-15T11:56:43.893Z,1.20
2023-03-15T11:59:14.476Z,1.33
2023-03-15T12:02:10.652Z,1.50
2023-03-15T12:05:17.711Z,1.40
2023-03-15T12:07:59.469Z,1.60
2023-03-15T12:10:34.410Z,1.20
2023-03-15T12:13:16.491Z,1.10
2023-03-15T12:15:45.832Z,1.53
2023-03-15T12:18:16.685Z,2.20
2023-03-15T12:20:50.477Z,1.70
2023-03-15T12:23:17.157Z,1.20
2023-03-15T12:26:01.901Z,1.10
2023-03-15T12:28:40.463Z,1.40
2023-03-15T12:31:14.499Z,1.20
2023-03-15T12:33:58.375Z,1.10
2023-03-15T12:36:41.051Z,1.17
2023-03-15T12:39:16.856Z,1.00
2023-03-15T12:41:49.503Z,1.30
2023-03-15T12:44:31.880Z,1.30
2023-03-15T12:47:00.783Z,1.00
2023-03-15T12:49:27.458Z,1.30
2023-03-15T12:52:01.259Z,1.20
2023-03-15T12:54:39.510Z,1.17
2023-03-15T12:57:06.690Z,4.43
2023-03-15T12:59:46.396Z,1.47
2023-03-15T13:02:42.104Z,1.00
2023-03-15T13:05:10.389Z,1.00
2023-03-15T13:08:17.651Z,1.20
2023-03-15T13:11:18.100Z,1.03
2023-03-15T13:14:05.478Z,1.10
2023-03-15T13:17:07.438Z,1.27
2023-03-15T13:19:41.865Z,1.30
2023-03-15T13:22:24.342Z,2.07
2023-03-15T13:24:52.378Z,1.60
2023-03-15T13:27:25.073Z,1.40
2023-03-15T13:29:51.931Z,1.77
2023-03-15T13:32:22.355Z,1.47
2023-03-15T13:34:49.907Z,1.00
2023-03-15T13:37:21.760Z,1.17
2023-03-15T13:40:03.558Z,1.13
2023-03-15T13:42:30.506Z,1.13
2023-03-15T13:45:06.506Z,0.60
2023-03-15T13:47:34.831Z,0.90
2023-03-15T13:50:06.276Z,1.70
2023-03-15T13:52:33.209Z,0.90
2023-03-15T13:55:02.157Z,1.10
2023-03-15T13:57:29.807Z,1.10
2023-03-15T14:00:19.111Z,0.90
2023-03-15T14:02:55.173Z,0.90
2023-03-15T14:05:31.330Z,0.97
2023-03-15T14:08:06.405Z,1.30
2023-03-15T14:10:36.071Z,0.90
2023-03-15T14:13:32.191Z,0.93
2023-03-15T14:16:07.720Z,0.97
2023-03-15T14:18:40.655Z,0.97
2023-03-15T14:21:14.450Z,1.10
2023-03-15T14:23:44.055Z,0.73
2023-03-15T14:26:13.794Z,0.80
2023-03-15T14:28:41.773Z,1.10
2023-03-15T14:31:08.719Z,1.37
2023-03-15T14:33:42.417Z,0.70
2023-03-15T14:36:28.625Z,1.00
2023-03-15T14:38:58.591Z,1.50
2023-03-15T14:41:33.209Z,0.80
2023-03-15T14:44:03.302Z,1.07
2023-03-15T14:46:33.319Z,0.90
2023-03-15T14:49:00.896Z,0.90
2023-03-15T14:51:28.576Z,1.00
2023-03-15T14:53:59.459Z,1.43
2023-03-15T14:56:26.716Z,1.37
2023-03-15T14:58:56.416Z,1.33
2023-03-15T15:01:26.442Z,0.80
2023-03-15T15:03:58.359Z,1.50
2023-03-15T15:06:27.012Z,1.23
2023-03-15T15:08:56.600Z,0.90
2023-03-15T15:11:23.324Z,1.20
2023-03-15T15:13:50.268Z,1.00
2023-03-15T15:16:17.080Z,0.90
2023-03-15T15:18:43.914Z,0.90
2023-03-15T15:21:23.618Z,0.97
2023-03-15T15:23:58.390Z,1.50
2023-03-15T15:26:28.201Z,1.27
2023-03-15T15:28:56.621Z,1.80
2023-03-15T15:31:25.480Z,1.77
2023-03-15T15:33:53.932Z,1.43
2023-03-15T15:36:44.334Z,1.63
2023-03-15T15:39:23.583Z,1.60
2023-03-15T15:41:50.735Z,1.57
2023-03-15T15:44:20.185Z,2.10
2023-03-15T15:46:46.949Z,2.00
2023-03-15T15:49:13.752Z,2.28
2023-03-15T15:51:46.571Z,2.28
2023-03-15T15:54:24.776Z,1.75
2023-03-15T15:56:59.750Z,2.20
2023-03-15T15:59:27.214Z,1.65
2023-03-15T16:02:03.099Z,2.10
2023-03-15T16:04:30.541Z,2.00
2023-03-15T16:07:01.659Z,1.85
2023-03-15T16:09:30.377Z,1.83
2023-03-15T16:11:57.394Z,2.70
2023-03-15T16:14:24.136Z,1.92
2023-03-15T16:16:50.920Z,2.25
2023-03-15T16:19:17.665Z,3.00
2023-03-15T16:21:47.789Z,2.22
2023-03-15T16:24:25.821Z,2.03
2023-03-15T16:26:58.324Z,2.60
2023-03-15T16:29:35.305Z,2.90
2023-03-15T16:32:15.951Z,2.97
2023-03-15T16:34:47.142Z,2.25
2023-03-15T16:37:15.868Z,1.80
2023-03-15T16:39:45.397Z,1.95
2023-03-15T16:42:13.523Z,3.22
2023-03-15T16:44:40.979Z,2.50
2023-03-15T16:47:08.513Z,1.80
2023-03-15T16:49:35.384Z,6.70
2023-03-15T16:52:04.768Z,2.22
2023-03-15T16:54:41.042Z,2.53
2023-03-15T16:57:21.940Z,2.47
2023-03-15T16:59:49.371Z,1.80
2023-03-15T17:02:25.233Z,1.38
2023-03-15T17:04:55.117Z,2.40
2023-03-15T17:07:32.674Z,2.22
2023-03-15T17:10:05.452Z,1.80
2023-03-15T17:12:32.354Z,1.80
2023-03-15T17:15:00.002Z,1.70
2023-03-15T17:17:28.886Z,2.03
2023-03-15T17:19:56.140Z,2.03
2023-03-15T17:22:23.228Z,1.80
2023-03-15T17:24:50.260Z,1.85
2023-03-15T17:27:24.906Z,2.00
2023-03-15T17:29:51.679Z,1.92
2023-03-15T17:32:18.451Z,2.15
2023-03-15T17:34:47.196Z,2.10
2023-03-15T17:37:15.615Z,1.48
2023-03-15T17:39:44.832Z,1.90
2023-03-15T17:42:13.761Z,1.75
2023-03-15T17:44:41.523Z,2.57
2023-03-15T17:47:11.820Z,2.35
2023-03-15T17:49:39.022Z,3.05
2023-03-15T17:52:13.197Z,9.32
2023-03-15T17:54:40.145Z,2.05
2023-03-15T17:57:07.038Z,2.60
2023-03-15T17:59:33.822Z,2.25
2023-03-15T18:02:00.634Z,2.42
2023-03-15T18:04:27.521Z,3.13
2023-03-15T18:06:55.474Z,14.20
2023-03-15T18:09:23.855Z,2.85
2023-03-15T18:11:50.964Z,1.80
2023-03-15T18:14:18.899Z,2.10
2023-03-15T18:16:45.777Z,2.42
2023-03-15T18:19:12.563Z,2.00
2023-03-15T18:21:39.371Z,1.83
2023-03-15T18:24:06.391Z,2.50
2023-03-15T18:26:33.277Z,1.75
2023-03-15T18:29:00.073Z,2.05
2023-03-15T18:31:26.852Z,2.65
2023-03-15T18:33:54.325Z,1.52
2023-03-15T18:36:21.197Z,2.25
2023-03-15T18:38:48.420Z,1.98
2023-03-15T18:41:25.067Z,1.90
2023-03-15T18:43:52.286Z,2.00
2023-03-15T18:46:21.297Z,1.73
2023-03-15T18:48:49.696Z,1.92
2023-03-15T18:51:20.059Z,2.22
2023-03-15T18:53:46.762Z,2.28
2023-03-15T18:56:21.837Z,2.30
2023-03-15T18:58:50.042Z,2.20
2023-03-15T19:01:17.823Z,2.58
2023-03-15T19:03:45.123Z,2.00
2023-03-15T19:06:13.393Z,2.08
2023-03-15T19:08:40.624Z,2.05
2023-03-15T19:11:08.479Z,1.85
2023-03-15T19:13:35.543Z,2.22
2023-03-15T19:16:03.173Z,2.10
2023-03-15T19:18:32.381Z,2.00
2023-03-15T19:20:59.425Z,1.73
2023-03-15T19:23:26.471Z,2.00
2023-03-15T19:25:53.234Z,1.95
2023-03-15T19:28:19.983Z,3.05
2023-03-15T19:30:46.945Z,3.00
2023-03-15T19:33:13.732Z,2.72
2023-03-15T19:35:40.569Z,3.10
2023-03-15T19:38:07.373Z,3.20
2023-03-15T19:40:34.201Z,2.85
2023-03-15T19:43:00.988Z,2.42
2023-03-15T19:45:27.980Z,2.65
2023-03-15T19:47:54.768Z,3.20
2023-03-15T19:50:21.574Z,2.42
2023-03-15T19:52:48.363Z,2.78
2023-03-15T19:55:20.261Z,2.60
2023-03-15T19:57:47.644Z,3.95
2023-03-15T20:00:16.647Z,3.20
2023-03-15T20:02:44.501Z,3.00
2023-03-15T20:05:13.428Z,2.85
2023-03-15T20:07:40.339Z,2.00
2023-03-15T20:10:14.044Z,3.17
2023-03-15T20:12:45.568Z,2.97
2023-03-15T20:15:14.405Z,2.58
2023-03-15T20:17:41.502Z,2.63
2023-03-15T20:20:10.809Z,3.60
2023-03-15T20:22:41.378Z,2.40
2023-03-15T20:25:09.962Z,2.20
2023-03-15T20:27:37.417Z,2.53
2023-03-15T20:30:06.106Z,2.45
2023-03-15T20:32:32.938Z,2.90
2023-03-15T20:35:01.172Z,2.20
2023-03-15T20:37:30.171Z,3.03
2023-03-15T20:39:57.014Z,2.70
2023-03-15T20:42:25.006Z,3.17
2023-03-15T20:44:52.699Z,3.00
2023-03-15T20:47:19.819Z,3.50
2023-03-15T20:49:46.543Z,2.83
2023-03-15T20:52:13.309Z,3.13
2023-03-15T20:54:40.147Z,3.50
2023-03-15T20:57:07.168Z,3.42
2023-03-15T20:59:34.002Z,3.40
2023-03-15T21:02:02.756Z,2.83
2023-03-15T21:04:29.711Z,3.00
2023-03-15T21:06:56.785Z,3.47
2023-03-15T21:09:23.550Z,3.35
2023-03-15T21:11:50.492Z,4.03
2023-03-15T21:14:17.289Z,2.90
2023-03-15T21:16:44.035Z,4.30
2023-03-15T21:19:10.801Z,4.03
2023-03-15T21:21:37.542Z,4.10
2023-03-15T21:24:06.359Z,4.07
2023-03-15T21:26:33.152Z,4.97
2023-03-15T21:29:00.142Z,4.70
2023-03-15T21:31:27.073Z,4.28
2023-03-15T21:33:53.779Z,3.97
2023-03-15T21:36:20.602Z,4.13
2023-03-15T21:38:47.352Z,5.22
2023-03-15T21:41:14.191Z,4.93
2023-03-15T21:43:41.142Z,4.97
2023-03-15T21:46:11.892Z,4.80
2023-03-15T21:48:38.953Z,4.57
2023-03-15T21:51:06.803Z,4.60
2023-03-15T21:53:34.430Z,5.50
2023-03-15T21:56:02.062Z,4.88
2023-03-15T21:58:29.327Z,5.40
2023-03-15T22:01:00.320Z,4.72
2023-03-15T22:03:27.910Z,4.65
2023-03-15T22:05:54.818Z,5.82
2023-03-15T22:08:21.634Z,7.30
2023-03-15T22:10:52.553Z,5.88
2023-03-15T22:13:19.263Z,6.13
2023-03-15T22:15:46.047Z,5.88
2023-03-15T22:18:12.852Z,5.35
2023-03-15T22:20:39.616Z,5.70
2023-03-15T22:23:06.491Z,5.78
2023-03-15T22:25:33.857Z,5.93
2023-03-15T22:28:01.977Z,6.53
2023-03-15T22:30:28.823Z,6.05
2023-03-15T22:32:55.643Z,8.50
2023-03-15T22:35:22.795Z,15.75
2023-03-15T22:37:49.664Z,6.82
2023-03-15T22:40:16.575Z,6.97
2023-03-15T22:42:44.207Z,6.88
2023-03-15T22:45:11.205Z,6.35
2023-03-15T22:47:40.774Z,5.95
2023-03-15T22:50:07.970Z,6.40
2023-03-15T22:52:34.701Z,8.25
2023-03-15T22:55:01.485Z,8.18
2023-03-15T22:57:28.338Z,6.30
2023-03-15T22:59:55.068Z,7.20
2023-03-15T23:02:21.877Z,7.05
2023-03-15T23:04:48.852Z,6.70
2023-03-15T23:07:15.711Z,6.50
2023-03-15T23:09:42.670Z,6.15
2023-03-15T23:12:10.011Z,6.85
2023-03-15T23:14:36.852Z,5.78
2023-03-15T23:17:04.591Z,6.32
2023-03-15T23:19:34.147Z,6.15
2023-03-15T23:22:04.723Z,5.70
2023-03-15T23:24:34.002Z,5.57
2023-03-15T23:27:04.507Z,6.03
2023-03-15T23:29:34.147Z,5.43
2023-03-15T23:32:05.225Z,5.93
2023-03-15T23:34:31.930Z,5.15
2023-03-15T23:36:58.667Z,6.20
2023-03-15T23:39:25.508Z,5.82
2023-03-15T23:41:52.263Z,5.88
2023-03-15T23:44:19.039Z,5.93
2023-03-15T23:46:45.921Z,5.68
2023-03-15T23:49:12.904Z,5.65
2023-03-15T23:51:39.806Z,5.20
2023-03-15T23:54:06.526Z,5.78
2023-03-15T23:56:33.698Z,6.57
2023-03-15T23:59:00.664Z,7.90
